Skip Navigation Links
NOAA logo - Click to go to the NOAA homepage
NOAA's National Weather Service
Alaska Aviation Weather Unit
  NWS logo - Click to go to the NWS homepage
Left Navbar Graphic     08 AKDT = 16 GMT

   
NOAA is celebrating 200 years of science, service, and stewardship. Visit the NOAA 200th celebration Web site to learn more.
USA.gov is the U.S. Government's official Web portal to all Federal, state and local government Web resources and services.
Facebook
NWS on Facebook

Important Change Regarding the AAWU Web Presence

 

Over the last several months, the AAWU has been working to navigate its webpages to a nationally supported server. Security, as well as other needs, have necessitated the change.  In the process, we have made an effort to enhance the functionality of our website, as well as some of our products. As of June 20, 2017, aawu.arh.noaa.gov will be discontinued. The new AAWU web address is weather.gov/aawu. It is now live and will run in-parallel with the old site until it is discontinued. Please send any feedback or questions regarding the new webpages to nws.ar.aawu.webauthors@noaa.gov.  Thank you for your patience during this time of transition.
AAWU Home :: Display TAF Add Bookmark
TAF CZFA 291538Z 2916/2922 VRB03KT P6SM BKN160
    FM292000 22010KT P6SM SCT090 BKN200
    RMK NXT FCST BY 291800Z=

METAR CZFA 291400Z 20002KT 30SM SCT120 OVC150 10/04 A2990 RMK AC3AS5 ACSL CLIMAT 22.9/8.6/0.0 SLP137= METAR CZFA 291500Z 00000KT 30SM FEW120 BKN150 OVC170 11/03 A2990 RMK AC1AS4AC3 SLP135 DENSITY ALT 2400FT= METAR CZFA 291600Z 20003KT 30SM SCT140 BKN170 OVC200 11/02 A2989 RMK AS3AC3CI2 SLP134 DENSITY ALT 2400FT=
 Alaska TAF Map

NOAA's National Weather Service
Alaska Aviation Weather Unit
6930 Sand Lake Road
Anchorage, AK 99502-1845
Disclaimer
Credits
Glossary
Privacy Policy
About Us
Career Opportunities
Contact AAWU Internet Services Site last modified: April, 17th 2012